createdAt,value
2018-11-03T00:01:23.893Z,7.23
2018-11-03T00:03:52.150Z,6.63
2018-11-03T00:06:20.448Z,6.83
2018-11-03T00:08:48.721Z,6.10
2018-11-03T00:11:17.023Z,6.20
2018-11-03T00:13:45.364Z,6.10
2018-11-03T00:16:13.737Z,6.40
2018-11-03T00:18:42.124Z,5.70
2018-11-03T00:21:10.390Z,6.20
2018-11-03T00:23:38.690Z,6.80
2018-11-03T00:26:07.047Z,6.53
2018-11-03T00:28:35.326Z,6.10
2018-11-03T00:31:03.607Z,5.83
2018-11-03T00:33:31.910Z,6.30
2018-11-03T00:36:00.238Z,7.33
2018-11-03T00:38:28.507Z,6.20
2018-11-03T00:40:56.853Z,6.17
2018-11-03T00:43:25.135Z,6.00
2018-11-03T00:45:53.475Z,7.10
2018-11-03T00:48:21.766Z,6.73
2018-11-03T00:50:50.083Z,7.00
2018-11-03T00:53:18.387Z,7.53
2018-11-03T00:55:46.730Z,7.93
2018-11-03T00:58:15.016Z,7.70
2018-11-03T01:00:43.372Z,8.43
2018-11-03T01:03:11.658Z,8.73
2018-11-03T01:05:40.033Z,8.00
2018-11-03T01:08:08.425Z,7.87
2018-11-03T01:10:36.764Z,7.80
2018-11-03T01:13:05.654Z,7.50
2018-11-03T01:15:33.949Z,7.83
2018-11-03T01:18:02.250Z,7.67
2018-11-03T01:20:30.610Z,8.90
2018-11-03T01:22:58.889Z,8.33
2018-11-03T01:25:27.245Z,8.50
2018-11-03T01:27:55.533Z,8.30
2018-11-03T01:30:23.905Z,9.43
2018-11-03T01:32:52.237Z,8.47
2018-11-03T01:35:20.668Z,9.30
2018-11-03T01:37:48.990Z,9.90
2018-11-03T01:40:17.278Z,9.43
2018-11-03T01:42:45.570Z,9.90
2018-11-03T01:45:13.875Z,9.80
2018-11-03T01:47:42.252Z,9.73
2018-11-03T01:50:11.549Z,10.60
2018-11-03T01:52:40.761Z,10.07
2018-11-03T01:55:09.099Z,11.13
2018-11-03T01:57:38.230Z,12.50
2018-11-03T02:00:07.375Z,11.50
2018-11-03T02:02:35.703Z,11.60
2018-11-03T02:05:04.031Z,12.50
2018-11-03T02:07:32.410Z,12.60
2018-11-03T02:10:00.661Z,13.90
2018-11-03T02:12:28.973Z,14.70
2018-11-03T02:14:57.296Z,14.20
2018-11-03T02:17:25.722Z,14.23
2018-11-03T02:19:54.022Z,14.87
2018-11-03T02:22:22.322Z,15.37
2018-11-03T02:24:50.633Z,14.93
2018-11-03T02:27:18.947Z,14.80
2018-11-03T02:29:47.219Z,15.07
2018-11-03T02:32:15.660Z,15.80
2018-11-03T02:34:43.970Z,16.27
2018-11-03T02:37:12.313Z,16.20
2018-11-03T02:39:40.610Z,16.23
2018-11-03T02:42:08.961Z,15.97
2018-11-03T02:44:37.246Z,16.57
2018-11-03T02:47:06.233Z,16.37
2018-11-03T02:49:34.548Z,17.27
2018-11-03T02:52:02.882Z,16.97
2018-11-03T02:54:31.162Z,18.07
2018-11-03T02:56:59.443Z,17.60
2018-11-03T02:59:27.854Z,16.63
2018-11-03T03:01:56.226Z,17.33
2018-11-03T03:04:24.525Z,17.37
2018-11-03T03:06:52.864Z,18.33
2018-11-03T03:09:21.150Z,17.80
2018-11-03T03:11:49.481Z,17.03
2018-11-03T03:14:17.807Z,17.73
2018-11-03T03:16:46.175Z,17.50
2018-11-03T03:19:14.595Z,18.03
2018-11-03T03:21:42.833Z,17.20
2018-11-03T03:24:11.142Z,16.37
2018-11-03T03:26:39.510Z,17.57
2018-11-03T03:29:08.038Z,17.10
2018-11-03T03:31:36.202Z,17.53
2018-11-03T03:34:04.734Z,17.87
2018-11-03T03:36:33.113Z,17.53
2018-11-03T03:39:01.547Z,18.77
2018-11-03T03:41:29.873Z,17.23
2018-11-03T03:43:58.150Z,20.60
2018-11-03T03:46:26.438Z,19.57
2018-11-03T03:48:54.719Z,19.53
2018-11-03T03:51:23.004Z,19.13
2018-11-03T03:53:51.466Z,19.20
2018-11-03T03:56:19.845Z,19.43
2018-11-03T03:58:48.223Z,18.87
2018-11-03T04:01:16.538Z,19.90
2018-11-03T04:03:44.815Z,18.57
2018-11-03T04:06:13.157Z,19.70
2018-11-03T04:08:41.538Z,19.10
2018-11-03T04:11:09.811Z,18.57
2018-11-03T04:13:38.139Z,18.90
2018-11-03T04:16:06.448Z,17.90
2018-11-03T04:18:34.721Z,19.83
2018-11-03T04:21:03.026Z,19.53
2018-11-03T04:23:31.304Z,20.30
2018-11-03T04:25:59.586Z,19.93
2018-11-03T04:28:27.855Z,19.97
2018-11-03T04:30:56.139Z,19.80
2018-11-03T04:33:24.517Z,19.20
2018-11-03T04:35:52.818Z,20.33
2018-11-03T04:38:21.172Z,19.37
2018-11-03T04:40:49.465Z,20.20
2018-11-03T04:43:17.746Z,20.20
2018-11-03T04:45:46.034Z,20.17
2018-11-03T04:48:14.333Z,19.73
2018-11-03T04:50:42.626Z,20.53
2018-11-03T04:53:10.907Z,21.07
2018-11-03T04:55:39.216Z,19.30
2018-11-03T04:58:07.466Z,19.73
2018-11-03T05:00:35.770Z,19.70
2018-11-03T05:03:04.348Z,19.43
2018-11-03T05:05:32.748Z,21.07
2018-11-03T05:08:01.078Z,21.17
2018-11-03T05:10:29.488Z,19.97
2018-11-03T05:12:57.774Z,20.83
2018-11-03T05:15:26.152Z,19.67
2018-11-03T05:17:54.438Z,20.83
2018-11-03T05:20:22.754Z,20.00
2018-11-03T05:22:51.014Z,21.00
2018-11-03T05:25:19.303Z,19.77
2018-11-03T05:27:47.558Z,20.30
2018-11-03T05:30:15.857Z,21.07
2018-11-03T05:32:44.301Z,21.77
2018-11-03T05:35:12.726Z,20.97
2018-11-03T05:37:40.943Z,21.73
2018-11-03T05:40:09.238Z,21.60
2018-11-03T05:42:37.612Z,21.13
2018-11-03T05:45:05.996Z,21.83
2018-11-03T05:47:34.278Z,21.23
2018-11-03T05:50:02.554Z,22.10
2018-11-03T05:52:30.846Z,22.10
2018-11-03T05:54:59.203Z,22.23
2018-11-03T05:57:27.510Z,21.83
2018-11-03T05:59:55.779Z,22.57
2018-11-03T06:02:24.063Z,22.10
2018-11-03T06:04:52.326Z,21.93
2018-11-03T06:07:20.695Z,22.23
2018-11-03T06:09:48.980Z,22.23
2018-11-03T06:12:17.290Z,22.73
2018-11-03T06:14:45.630Z,22.13
2018-11-03T06:17:13.962Z,22.90
2018-11-03T06:19:42.843Z,22.97
2018-11-03T06:22:11.178Z,22.87
2018-11-03T06:24:39.558Z,23.30
2018-11-03T06:27:07.935Z,24.63
2018-11-03T06:29:36.222Z,25.80
2018-11-03T06:32:04.826Z,25.37
2018-11-03T06:34:33.190Z,23.33
2018-11-03T06:37:01.560Z,22.03
2018-11-03T06:39:29.830Z,22.13
2018-11-03T06:41:58.227Z,22.47
2018-11-03T06:44:26.640Z,23.83
2018-11-03T06:46:54.925Z,22.43
2018-11-03T06:49:24.410Z,23.67
2018-11-03T06:51:53.266Z,21.47
2018-11-03T06:54:22.294Z,19.87
2018-11-03T06:56:50.675Z,20.97
2018-11-03T06:59:19.333Z,21.63
2018-11-03T07:01:47.623Z,21.03
2018-11-03T07:04:15.926Z,20.97
2018-11-03T07:06:44.189Z,20.80
2018-11-03T07:09:13.269Z,21.60
2018-11-03T07:11:41.614Z,21.00
2018-11-03T07:14:10.340Z,20.17
2018-11-03T07:16:38.660Z,21.50
2018-11-03T07:19:06.987Z,21.73
2018-11-03T07:21:35.275Z,21.97
2018-11-03T07:24:03.576Z,22.33
2018-11-03T07:26:31.849Z,20.30
2018-11-03T07:29:00.116Z,19.43
2018-11-03T07:31:28.372Z,19.30
2018-11-03T07:33:56.853Z,21.20
2018-11-03T07:36:25.234Z,21.83
2018-11-03T07:38:53.534Z,19.83
2018-11-03T07:41:21.850Z,21.00
2018-11-03T07:43:50.154Z,19.67
2018-11-03T07:46:18.405Z,20.43
2018-11-03T07:48:46.788Z,21.60
2018-11-03T07:51:14.997Z,21.47
2018-11-03T07:53:43.278Z,22.87
2018-11-03T07:56:11.653Z,21.33
2018-11-03T07:58:39.950Z,22.60
2018-11-03T08:01:08.230Z,23.03
2018-11-03T08:03:36.588Z,22.03
2018-11-03T08:06:04.958Z,20.97
2018-11-03T08:08:33.347Z,20.57
2018-11-03T08:11:02.033Z,21.17
2018-11-03T08:13:30.394Z,20.53
2018-11-03T08:15:58.691Z,20.37
2018-11-03T08:18:26.974Z,21.80
2018-11-03T08:20:55.297Z,20.60
2018-11-03T08:23:23.553Z,18.13
2018-11-03T08:25:51.862Z,19.80
2018-11-03T08:28:20.216Z,18.60
2018-11-03T08:30:48.465Z,18.53
2018-11-03T08:33:16.743Z,18.37
2018-11-03T08:35:45.019Z,18.03
2018-11-03T08:38:13.403Z,18.83
2018-11-03T08:40:41.779Z,17.50
2018-11-03T08:43:10.155Z,18.23
2018-11-03T08:45:38.458Z,18.33
2018-11-03T08:48:07.064Z,18.43
2018-11-03T08:50:35.473Z,18.57
2018-11-03T08:53:03.748Z,18.20
2018-11-03T08:55:32.022Z,19.57
2018-11-03T08:58:00.318Z,19.03
2018-11-03T09:00:28.631Z,18.17
2018-11-03T09:02:56.947Z,18.37
2018-11-03T09:05:25.263Z,19.57
2018-11-03T09:07:53.566Z,21.00
2018-11-03T09:10:21.982Z,21.07
2018-11-03T09:12:50.330Z,22.00
2018-11-03T09:15:18.661Z,21.80
2018-11-03T09:17:46.894Z,21.70
2018-11-03T09:20:15.244Z,21.60
2018-11-03T09:22:43.453Z,23.43
2018-11-03T09:25:13.874Z,23.00
2018-11-03T09:27:43.061Z,22.77
2018-11-03T09:30:14.757Z,23.17
2018-11-03T09:32:43.233Z,22.67
2018-11-03T09:35:12.636Z,22.13
2018-11-03T09:37:40.927Z,22.80
2018-11-03T09:40:12.757Z,22.23
2018-11-03T09:42:41.840Z,23.30
2018-11-03T09:45:11.120Z,24.07
2018-11-03T09:47:39.650Z,23.70
2018-11-03T09:50:09.430Z,23.60
2018-11-03T09:52:38.034Z,22.90
2018-11-03T09:55:08.267Z,24.80
2018-11-03T09:57:36.610Z,23.17
2018-11-03T10:00:06.334Z,23.87
2018-11-03T10:02:34.817Z,23.17
2018-11-03T10:05:03.078Z,24.83
2018-11-03T10:07:31.409Z,23.63
2018-11-03T10:09:59.688Z,23.63
2018-11-03T10:12:27.982Z,25.43
2018-11-03T10:14:56.306Z,24.30
2018-11-03T10:17:24.629Z,23.87
2018-11-03T10:19:52.963Z,24.73
2018-11-03T10:22:21.353Z,23.80
2018-11-03T10:24:49.579Z,23.47
2018-11-03T10:27:17.899Z,24.33
2018-11-03T10:29:46.281Z,23.43
2018-11-03T10:32:14.620Z,23.10
2018-11-03T10:34:42.865Z,24.10
2018-11-03T10:37:11.321Z,21.83
2018-11-03T10:39:39.615Z,21.70
2018-11-03T10:42:07.933Z,20.67
2018-11-03T10:44:36.216Z,20.53
2018-11-03T10:47:04.553Z,19.40
2018-11-03T10:49:32.911Z,20.03
2018-11-03T10:52:01.195Z,19.10
2018-11-03T10:54:29.461Z,20.63
2018-11-03T10:56:57.842Z,18.47
2018-11-03T10:59:26.144Z,20.33
2018-11-03T11:01:59.756Z,22.33
2018-11-03T11:04:33.362Z,20.53
2018-11-03T11:07:07.233Z,18.97
2018-11-03T11:09:40.842Z,20.03
2018-11-03T11:12:16.280Z,19.33
2018-11-03T11:14:44.884Z,19.90
2018-11-03T11:17:13.366Z,18.30
2018-11-03T11:19:41.725Z,19.97
2018-11-03T11:22:10.036Z,19.07
2018-11-03T11:24:38.357Z,19.10
2018-11-03T11:27:06.617Z,20.13
2018-11-03T11:29:35.145Z,19.20
2018-11-03T11:32:03.643Z,19.40
2018-11-03T11:34:31.984Z,20.07
2018-11-03T11:37:00.267Z,19.33
2018-11-03T11:39:28.553Z,22.00
2018-11-03T11:41:56.830Z,19.80
2018-11-03T11:44:25.130Z,19.97
2018-11-03T11:46:53.502Z,20.77
2018-11-03T11:49:21.797Z,20.77
2018-11-03T11:51:50.070Z,20.30
2018-11-03T11:54:18.435Z,17.97
2018-11-03T11:56:46.710Z,17.60
2018-11-03T11:59:15.015Z,16.67
2018-11-03T12:01:43.498Z,14.63
2018-11-03T12:04:11.845Z,16.07
2018-11-03T12:06:40.383Z,14.27
2018-11-03T12:09:09.283Z,12.43
2018-11-03T12:11:37.576Z,12.10
2018-11-03T12:14:05.998Z,14.17
2018-11-03T12:16:34.467Z,17.17
2018-11-03T12:19:02.843Z,15.40
2018-11-03T12:21:31.232Z,14.43
2018-11-03T12:23:59.726Z,11.60
2018-11-03T12:26:27.969Z,11.07
2018-11-03T12:28:56.256Z,10.10
2018-11-03T12:31:24.526Z,12.47
2018-11-03T12:33:52.935Z,12.33
2018-11-03T12:36:21.398Z,11.30
2018-11-03T12:38:49.706Z,9.70
2018-11-03T12:41:18.092Z,13.30
2018-11-03T12:43:46.433Z,13.70
2018-11-03T12:46:14.974Z,12.30
2018-11-03T12:48:43.429Z,12.20
2018-11-03T12:51:11.777Z,14.03
2018-11-03T12:53:40.101Z,14.60
2018-11-03T12:56:08.465Z,15.00
2018-11-03T12:58:36.718Z,14.17
2018-11-03T13:01:05.134Z,14.70
2018-11-03T13:03:33.475Z,13.73
2018-11-03T13:06:01.762Z,14.60
2018-11-03T13:08:30.153Z,14.37
2018-11-03T13:10:58.512Z,15.50
2018-11-03T13:13:26.816Z,16.13
2018-11-03T13:15:55.192Z,15.03
2018-11-03T13:18:23.516Z,15.77
2018-11-03T13:20:51.926Z,14.57
2018-11-03T13:23:20.316Z,14.77
2018-11-03T13:25:48.656Z,16.50
2018-11-03T13:28:16.971Z,14.50
2018-11-03T13:30:45.358Z,14.30
2018-11-03T13:33:13.659Z,16.83
2018-11-03T13:35:42.030Z,17.40
2018-11-03T13:38:10.308Z,16.27
2018-11-03T13:40:38.671Z,16.77
2018-11-03T13:43:06.932Z,17.60
2018-11-03T13:45:35.214Z,16.13
2018-11-03T13:48:03.538Z,17.20
2018-11-03T13:50:31.835Z,17.43
2018-11-03T13:53:00.134Z,16.50
2018-11-03T13:55:28.422Z,16.70
2018-11-03T13:57:56.745Z,17.93
2018-11-03T14:00:25.030Z,17.80
2018-11-03T14:02:53.355Z,16.90
2018-11-03T14:05:21.674Z,16.93
2018-11-03T14:07:50.017Z,16.50
2018-11-03T14:10:18.313Z,16.23
2018-11-03T14:12:47.184Z,16.60
2018-11-03T14:15:16.784Z,16.00
2018-11-03T14:17:45.026Z,15.73
2018-11-03T14:20:14.474Z,15.43
2018-11-03T14:22:43.686Z,16.60
2018-11-03T14:25:13.298Z,16.40
2018-11-03T14:27:42.599Z,16.27
2018-11-03T14:30:11.989Z,15.47
2018-11-03T14:32:40.413Z,15.70
2018-11-03T14:35:09.691Z,15.30
2018-11-03T14:37:38.065Z,15.83
2018-11-03T14:40:08.890Z,15.57
2018-11-03T14:42:37.290Z,15.37
2018-11-03T14:45:06.552Z,15.13
2018-11-03T14:47:34.853Z,15.33
2018-11-03T14:50:04.163Z,14.60
2018-11-03T14:52:34.802Z,14.20
2018-11-03T14:55:03.087Z,14.73
2018-11-03T14:57:31.391Z,14.67
2018-11-03T14:59:59.711Z,14.07
2018-11-03T15:02:28.059Z,14.37
2018-11-03T15:04:56.479Z,14.70
2018-11-03T15:07:24.785Z,14.10
2018-11-03T15:09:53.073Z,13.80
2018-11-03T15:12:21.416Z,14.47
2018-11-03T15:14:49.802Z,14.13
2018-11-03T15:17:18.089Z,14.33
2018-11-03T15:19:46.535Z,14.60
2018-11-03T15:22:14.865Z,14.50
2018-11-03T15:24:43.124Z,14.23
2018-11-03T15:27:11.435Z,13.20
2018-11-03T15:29:39.768Z,13.17
2018-11-03T15:32:08.105Z,13.90
2018-11-03T15:34:36.391Z,13.37
2018-11-03T15:37:04.713Z,13.07
2018-11-03T15:39:33.090Z,13.77
2018-11-03T15:42:01.463Z,13.30
2018-11-03T15:44:29.711Z,13.20
2018-11-03T15:46:58.051Z,13.53
2018-11-03T15:49:26.397Z,14.57
2018-11-03T15:51:54.690Z,14.93
2018-11-03T15:54:22.986Z,14.40
2018-11-03T15:56:51.287Z,15.60
2018-11-03T15:59:19.570Z,15.90
2018-11-03T16:01:47.859Z,15.30
2018-11-03T16:04:16.143Z,16.30
2018-11-03T16:06:44.484Z,15.00
2018-11-03T16:09:13.153Z,15.93
2018-11-03T16:11:41.531Z,16.27
2018-11-03T16:14:10.214Z,16.00
2018-11-03T16:16:38.630Z,16.10
2018-11-03T16:19:07.188Z,16.67
2018-11-03T16:21:35.572Z,15.33
2018-11-03T16:24:03.898Z,16.27
2018-11-03T16:26:32.186Z,16.70
2018-11-03T16:29:00.497Z,15.57
2018-11-03T16:31:28.958Z,16.70
2018-11-03T16:33:57.341Z,16.47
2018-11-03T16:36:25.643Z,16.97
2018-11-03T16:38:53.962Z,17.13
2018-11-03T16:41:22.230Z,17.27
2018-11-03T16:43:50.580Z,16.63
2018-11-03T16:46:18.866Z,17.43
2018-11-03T16:48:47.210Z,17.40
2018-11-03T16:51:15.544Z,17.17
2018-11-03T16:53:43.965Z,16.97
2018-11-03T16:56:12.259Z,17.63
2018-11-03T16:58:40.677Z,17.17
2018-11-03T17:01:09.004Z,17.37
2018-11-03T17:03:37.268Z,17.43
2018-11-03T17:06:05.693Z,18.23
2018-11-03T17:08:34.093Z,17.83
2018-11-03T17:11:02.414Z,19.10
2018-11-03T17:13:30.808Z,19.33
2018-11-03T17:15:59.112Z,18.50
2018-11-03T17:18:27.416Z,19.40
2018-11-03T17:20:55.708Z,19.43
2018-11-03T17:23:24.075Z,19.60
2018-11-03T17:25:52.325Z,19.97
2018-11-03T17:28:20.653Z,19.20
2018-11-03T17:30:48.954Z,19.03
2018-11-03T17:33:17.215Z,20.10
2018-11-03T17:35:45.602Z,20.83
2018-11-03T17:38:14.003Z,21.67
2018-11-03T17:40:42.379Z,21.17
2018-11-03T17:43:10.698Z,20.17
2018-11-03T17:45:39.124Z,20.47
2018-11-03T17:48:07.458Z,19.90
2018-11-03T17:50:35.731Z,20.97
2018-11-03T17:53:04.059Z,23.57
2018-11-03T17:55:32.387Z,21.33
2018-11-03T17:58:00.699Z,22.10
2018-11-03T18:00:29.185Z,21.33
2018-11-03T18:02:57.412Z,21.53
2018-11-03T18:05:25.734Z,23.00
2018-11-03T18:07:54.138Z,21.60
2018-11-03T18:10:22.459Z,22.30
2018-11-03T18:12:50.814Z,22.93
2018-11-03T18:15:19.271Z,22.37
2018-11-03T18:17:47.921Z,22.43
2018-11-03T18:20:16.194Z,22.57
2018-11-03T18:22:44.514Z,22.13
2018-11-03T18:25:12.794Z,22.60
2018-11-03T18:27:41.161Z,22.67
2018-11-03T18:30:10.581Z,23.03
2018-11-03T18:32:39.278Z,22.73
2018-11-03T18:35:07.623Z,23.27
2018-11-03T18:37:35.979Z,23.37
2018-11-03T18:40:04.591Z,22.60
2018-11-03T18:42:32.938Z,22.17
2018-11-03T18:45:01.312Z,22.27
2018-11-03T18:47:29.649Z,22.37
2018-11-03T18:49:57.979Z,22.40
2018-11-03T18:52:26.279Z,22.97
2018-11-03T18:54:54.570Z,22.37
2018-11-03T18:57:22.873Z,23.53
2018-11-03T18:59:51.303Z,23.53
2018-11-03T19:02:19.661Z,23.07
2018-11-03T19:04:47.953Z,22.00
2018-11-03T19:07:16.291Z,22.00
2018-11-03T19:09:44.608Z,20.93
2018-11-03T19:12:13.012Z,22.47
2018-11-03T19:14:41.454Z,22.60
2018-11-03T19:17:09.887Z,22.70
2018-11-03T19:19:38.138Z,23.23
2018-11-03T19:22:06.547Z,22.57
2018-11-03T19:24:34.939Z,23.40
2018-11-03T19:27:03.420Z,23.13
2018-11-03T19:29:31.767Z,22.13
2018-11-03T19:32:00.153Z,23.37
2018-11-03T19:34:28.559Z,23.57
2018-11-03T19:36:56.946Z,23.20
2018-11-03T19:39:25.316Z,23.03
2018-11-03T19:41:53.648Z,22.73
2018-11-03T19:44:21.932Z,22.60
2018-11-03T19:46:50.253Z,23.03
2018-11-03T19:49:18.771Z,22.67
2018-11-03T19:51:47.284Z,23.57
2018-11-03T19:54:15.601Z,24.13
2018-11-03T19:56:43.922Z,24.00
2018-11-03T19:59:12.357Z,23.53
2018-11-03T20:01:40.678Z,21.33
2018-11-03T20:04:09.027Z,22.97
2018-11-03T20:06:37.434Z,22.67
2018-11-03T20:09:06.833Z,22.90
2018-11-03T20:11:35.193Z,22.63
2018-11-03T20:14:03.666Z,23.43
2018-11-03T20:16:31.938Z,22.03
2018-11-03T20:19:00.274Z,22.97
2018-11-03T20:21:28.583Z,23.43
2018-11-03T20:23:56.903Z,22.73
2018-11-03T20:26:25.234Z,23.07
2018-11-03T20:28:53.633Z,23.97
2018-11-03T20:31:21.945Z,23.97
2018-11-03T20:33:50.336Z,23.07
2018-11-03T20:36:18.769Z,23.57
2018-11-03T20:38:47.097Z,23.43
2018-11-03T20:41:15.529Z,24.77
2018-11-03T20:43:43.910Z,23.50
2018-11-03T20:46:12.455Z,23.70
2018-11-03T20:48:40.808Z,24.87
2018-11-03T20:51:11.023Z,22.73
2018-11-03T20:53:39.972Z,22.90
2018-11-03T20:56:08.793Z,25.10
2018-11-03T20:58:37.188Z,23.90
2018-11-03T21:01:06.164Z,23.50
2018-11-03T21:03:34.633Z,26.03
2018-11-03T21:06:03.031Z,25.23
2018-11-03T21:08:31.410Z,25.20
2018-11-03T21:11:00.587Z,25.23
2018-11-03T21:13:28.899Z,23.73
2018-11-03T21:15:57.189Z,25.03
2018-11-03T21:18:25.935Z,23.93
2018-11-03T21:20:54.647Z,24.40
2018-11-03T21:23:23.076Z,23.73
2018-11-03T21:25:51.487Z,23.47
2018-11-03T21:28:19.895Z,23.93
2018-11-03T21:30:48.163Z,23.30
2018-11-03T21:33:16.650Z,23.90
2018-11-03T21:35:44.852Z,23.27
2018-11-03T21:38:13.201Z,23.37
2018-11-03T21:40:41.517Z,23.67
2018-11-03T21:43:09.804Z,24.13
2018-11-03T21:45:38.114Z,24.20
2018-11-03T21:48:06.575Z,24.17
2018-11-03T21:50:34.914Z,23.33
2018-11-03T21:53:03.283Z,23.43
2018-11-03T21:55:31.578Z,23.87
2018-11-03T21:58:00.012Z,22.77
2018-11-03T22:00:28.398Z,23.90
2018-11-03T22:02:56.797Z,24.40
2018-11-03T22:05:25.171Z,24.80
2018-11-03T22:07:54.681Z,23.60
2018-11-03T22:10:24.318Z,24.17
2018-11-03T22:12:52.649Z,23.67
2018-11-03T22:15:21.797Z,23.37
2018-11-03T22:17:50.117Z,23.33
2018-11-03T22:20:18.559Z,24.00
2018-11-03T22:22:46.840Z,23.70
2018-11-03T22:25:15.148Z,24.87
2018-11-03T22:27:43.416Z,23.30
2018-11-03T22:30:12.033Z,23.63
2018-11-03T22:32:40.722Z,29.30
2018-11-03T22:35:09.059Z,30.47
2018-11-03T22:37:37.444Z,26.93
2018-11-03T22:40:06.484Z,33.07
2018-11-03T22:42:34.774Z,28.53
2018-11-03T22:45:03.104Z,28.17
2018-11-03T22:47:31.394Z,26.90
2018-11-03T22:49:59.678Z,27.67
2018-11-03T22:52:28.056Z,27.50
2018-11-03T22:54:56.374Z,27.50
2018-11-03T22:57:24.670Z,28.27
2018-11-03T22:59:53.014Z,26.13
2018-11-03T23:02:21.580Z,27.93
2018-11-03T23:04:50.055Z,27.80
2018-11-03T23:07:18.356Z,27.90
2018-11-03T23:09:46.702Z,27.80
2018-11-03T23:12:14.995Z,27.83
2018-11-03T23:14:43.310Z,27.47
2018-11-03T23:17:11.653Z,27.43
2018-11-03T23:19:40.370Z,29.17
2018-11-03T23:22:08.771Z,28.50
2018-11-03T23:24:37.095Z,28.90
2018-11-03T23:27:05.834Z,29.33
2018-11-03T23:29:34.225Z,28.53
2018-11-03T23:32:02.545Z,28.80
2018-11-03T23:34:31.003Z,28.67
2018-11-03T23:36:59.280Z,32.17
2018-11-03T23:39:27.682Z,34.97
2018-11-03T23:41:56.060Z,30.87
2018-11-03T23:44:24.518Z,30.03
2018-11-03T23:46:52.842Z,28.50
2018-11-03T23:49:21.264Z,28.50
2018-11-03T23:51:49.786Z,27.67
2018-11-03T23:54:18.165Z,28.37
2018-11-03T23:56:46.442Z,27.67
2018-11-03T23:59:14.765Z,28.47
